sensor_id;sensor_type;location;lat;lon;timestamp;temperature;humidity
19966;DHT22;10144;50.874;4.762;2023-04-08T00:03:28;8.30;99.90
19966;DHT22;10144;50.874;4.762;2023-04-08T00:09:16;8.20;99.90
19966;DHT22;10144;50.874;4.762;2023-04-08T00:15:05;8.30;99.90
19966;DHT22;10144;50.874;4.762;2023-04-08T00:20:52;8.30;99.90
19966;DHT22;10144;50.874;4.762;2023-04-08T00:26:40;8.30;99.90
19966;DHT22;10144;50.874;4.762;2023-04-08T00:32:28;8.20;99.90
19966;DHT22;10144;50.874;4.762;2023-04-08T00:38:16;8.30;99.90
19966;DHT22;10144;50.874;4.762;2023-04-08T00:44:04;8.30;99.90
19966;DHT22;10144;50.874;4.762;2023-04-08T00:49:51;8.20;99.90
19966;DHT22;10144;50.874;4.762;2023-04-08T00:55:39;8.30;99.90
19966;DHT22;10144;50.874;4.762;2023-04-08T01:08:11;8.40;99.90
19966;DHT22;10144;50.874;4.762;2023-04-08T01:14:02;8.30;99.90
19966;DHT22;10144;50.874;4.762;2023-04-08T01:19:53;8.20;99.90
19966;DHT22;10144;50.874;4.762;2023-04-08T01:25:50;8.20;99.90
19966;DHT22;10144;50.874;4.762;2023-04-08T01:31:38;8.20;99.90
19966;DHT22;10144;50.874;4.762;2023-04-08T01:37:28;8.20;99.90
19966;DHT22;10144;50.874;4.762;2023-04-08T01:43:17;8.10;99.90
19966;DHT22;10144;50.874;4.762;2023-04-08T01:52:26;8.20;99.90
19966;DHT22;10144;50.874;4.762;2023-04-08T01:55:30;8.30;99.90
19966;DHT22;10144;50.874;4.762;2023-04-08T02:01:20;8.30;99.90
19966;DHT22;10144;50.874;4.762;2023-04-08T02:07:10;8.10;99.90
19966;DHT22;10144;50.874;4.762;2023-04-08T02:12:58;8.10;99.90
19966;DHT22;10144;50.874;4.762;2023-04-08T02:18:55;8.10;99.90
19966;DHT22;10144;50.874;4.762;2023-04-08T02:24:45;8.00;99.90
19966;DHT22;10144;50.874;4.762;2023-04-08T02:30:34;8.00;99.90
19966;DHT22;10144;50.874;4.762;2023-04-08T02:36:23;8.30;99.90
19966;DHT22;10144;50.874;4.762;2023-04-08T02:42:12;8.40;99.90
19966;DHT22;10144;50.874;4.762;2023-04-08T02:48:00;8.30;99.90
19966;DHT22;10144;50.874;4.762;2023-04-08T02:53:48;8.30;99.90
19966;DHT22;10144;50.874;4.762;2023-04-08T02:59:36;8.30;99.90
19966;DHT22;10144;50.874;4.762;2023-04-08T03:05:25;8.30;99.90
19966;DHT22;10144;50.874;4.762;2023-04-08T03:11:13;8.20;99.90
19966;DHT22;10144;50.874;4.762;2023-04-08T03:17:00;8.10;99.90
19966;DHT22;10144;50.874;4.762;2023-04-08T03:19:58;8.00;99.90
19966;DHT22;10144;50.874;4.762;2023-04-08T03:25:46;8.10;99.90
19966;DHT22;10144;50.874;4.762;2023-04-08T03:31:34;8.00;99.90
19966;DHT22;10144;50.874;4.762;2023-04-08T03:37:22;7.90;99.90
19966;DHT22;10144;50.874;4.762;2023-04-08T03:49:47;8.00;99.90
19966;DHT22;10144;50.874;4.762;2023-04-08T03:55:35;8.00;99.90
19966;DHT22;10144;50.874;4.762;2023-04-08T04:01:23;8.10;99.90
19966;DHT22;10144;50.874;4.762;2023-04-08T04:07:11;7.90;99.90
19966;DHT22;10144;50.874;4.762;2023-04-08T04:12:58;8.00;99.90
19966;DHT22;10144;50.874;4.762;2023-04-08T04:15:29;8.00;99.90
19966;DHT22;10144;50.874;4.762;2023-04-08T04:21:16;8.00;99.90
19966;DHT22;10144;50.874;4.762;2023-04-08T04:27:04;7.90;99.90
19966;DHT22;10144;50.874;4.762;2023-04-08T04:32:52;8.30;99.90
19966;DHT22;10144;50.874;4.762;2023-04-08T04:38:40;8.20;99.90
19966;DHT22;10144;50.874;4.762;2023-04-08T04:44:29;8.10;99.90
19966;DHT22;10144;50.874;4.762;2023-04-08T04:50:16;7.90;99.90
19966;DHT22;10144;50.874;4.762;2023-04-08T04:56:04;7.90;99.90
19966;DHT22;10144;50.874;4.762;2023-04-08T05:01:52;7.90;99.90
19966;DHT22;10144;50.874;4.762;2023-04-08T05:07:39;7.90;99.90
19966;DHT22;10144;50.874;4.762;2023-04-08T05:13:28;7.70;99.90
19966;DHT22;10144;50.874;4.762;2023-04-08T05:19:15;7.70;99.90
19966;DHT22;10144;50.874;4.762;2023-04-08T05:25:04;7.80;99.90
19966;DHT22;10144;50.874;4.762;2023-04-08T05:30:52;7.80;99.90
19966;DHT22;10144;50.874;4.762;2023-04-08T05:36:40;8.00;99.90
19966;DHT22;10144;50.874;4.762;2023-04-08T05:42:28;8.50;99.90
19966;DHT22;10144;50.874;4.762;2023-04-08T05:48:16;8.30;99.90
19966;DHT22;10144;50.874;4.762;2023-04-08T05:54:04;8.40;99.90
19966;DHT22;10144;50.874;4.762;2023-04-08T05:59:51;8.50;99.90
19966;DHT22;10144;50.874;4.762;2023-04-08T06:05:40;8.70;99.90
19966;DHT22;10144;50.874;4.762;2023-04-08T06:14:35;9.20;99.90
19966;DHT22;10144;50.874;4.762;2023-04-08T06:20:22;9.70;99.90
19966;DHT22;10144;50.874;4.762;2023-04-08T06:26:10;9.90;99.90
19966;DHT22;10144;50.874;4.762;2023-04-08T06:35:11;10.00;99.90
19966;DHT22;10144;50.874;4.762;2023-04-08T06:41:27;10.40;99.90
19966;DHT22;10144;50.874;4.762;2023-04-08T06:47:15;10.80;99.90
19966;DHT22;10144;50.874;4.762;2023-04-08T06:53:03;11.00;99.90
19966;DHT22;10144;50.874;4.762;2023-04-08T06:58:54;11.30;99.90
19966;DHT22;10144;50.874;4.762;2023-04-08T07:01:20;11.30;99.90
19966;DHT22;10144;50.874;4.762;2023-04-08T07:07:09;11.80;99.90
19966;DHT22;10144;50.874;4.762;2023-04-08T07:09:37;11.30;99.90
19966;DHT22;10144;50.874;4.762;2023-04-08T07:12:04;11.40;99.90
19966;DHT22;10144;50.874;4.762;2023-04-08T07:14:30;11.00;99.90
19966;DHT22;10144;50.874;4.762;2023-04-08T07:16:56;10.80;99.90
19966;DHT22;10144;50.874;4.762;2023-04-08T07:19:22;10.90;99.90
19966;DHT22;10144;50.874;4.762;2023-04-08T07:21:51;11.30;99.90
19966;DHT22;10144;50.874;4.762;2023-04-08T07:24:17;11.50;99.90
19966;DHT22;10144;50.874;4.762;2023-04-08T07:26:43;11.80;99.90
19966;DHT22;10144;50.874;4.762;2023-04-08T07:29:10;11.80;99.90
19966;DHT22;10144;50.874;4.762;2023-04-08T07:31:35;12.30;99.90
19966;DHT22;10144;50.874;4.762;2023-04-08T07:34:01;12.40;99.90
19966;DHT22;10144;50.874;4.762;2023-04-08T07:36:29;12.60;99.90
19966;DHT22;10144;50.874;4.762;2023-04-08T07:39:11;13.00;99.90
19966;DHT22;10144;50.874;4.762;2023-04-08T07:41:48;14.20;99.90
19966;DHT22;10144;50.874;4.762;2023-04-08T07:44:15;15.50;99.90
19966;DHT22;10144;50.874;4.762;2023-04-08T07:46:41;16.70;99.90
19966;DHT22;10144;50.874;4.762;2023-04-08T07:52:29;15.70;99.90
19966;DHT22;10144;50.874;4.762;2023-04-08T07:58:17;15.50;99.90
19966;DHT22;10144;50.874;4.762;2023-04-08T08:04:05;14.60;99.90
19966;DHT22;10144;50.874;4.762;2023-04-08T08:06:57;14.50;99.90
19966;DHT22;10144;50.874;4.762;2023-04-08T08:09:24;14.80;99.90
19966;DHT22;10144;50.874;4.762;2023-04-08T08:11:51;14.70;99.90
19966;DHT22;10144;50.874;4.762;2023-04-08T08:14:18;14.50;99.90
19966;DHT22;10144;50.874;4.762;2023-04-08T08:16:46;14.30;99.90
19966;DHT22;10144;50.874;4.762;2023-04-08T08:19:12;14.00;99.90
19966;DHT22;10144;50.874;4.762;2023-04-08T08:21:39;13.60;99.90
19966;DHT22;10144;50.874;4.762;2023-04-08T08:24:05;13.50;99.90
19966;DHT22;10144;50.874;4.762;2023-04-08T08:26:35;13.50;99.90
19966;DHT22;10144;50.874;4.762;2023-04-08T08:29:03;13.20;99.90
19966;DHT22;10144;50.874;4.762;2023-04-08T08:31:30;12.80;99.90
19966;DHT22;10144;50.874;4.762;2023-04-08T08:33:55;12.40;99.90
19966;DHT22;10144;50.874;4.762;2023-04-08T08:36:21;12.70;99.90
19966;DHT22;10144;50.874;4.762;2023-04-08T08:38:46;13.10;99.90
19966;DHT22;10144;50.874;4.762;2023-04-08T08:41:12;13.50;99.90
19966;DHT22;10144;50.874;4.762;2023-04-08T08:43:38;13.60;99.90
19966;DHT22;10144;50.874;4.762;2023-04-08T08:46:04;13.80;99.90
19966;DHT22;10144;50.874;4.762;2023-04-08T08:48:31;14.10;99.90
19966;DHT22;10144;50.874;4.762;2023-04-08T08:50:59;14.30;99.90
19966;DHT22;10144;50.874;4.762;2023-04-08T08:53:29;14.70;99.90
19966;DHT22;10144;50.874;4.762;2023-04-08T08:55:55;15.00;99.90
19966;DHT22;10144;50.874;4.762;2023-04-08T08:58:28;15.20;99.90
19966;DHT22;10144;50.874;4.762;2023-04-08T09:04:30;16.10;99.90
19966;DHT22;10144;50.874;4.762;2023-04-08T09:07:27;16.40;99.90
19966;DHT22;10144;50.874;4.762;2023-04-08T09:09:57;16.80;99.90
19966;DHT22;10144;50.874;4.762;2023-04-08T09:12:24;16.50;99.90
19966;DHT22;10144;50.874;4.762;2023-04-08T09:17:59;16.20;99.90
19966;DHT22;10144;50.874;4.762;2023-04-08T09:20:32;16.40;99.90
19966;DHT22;10144;50.874;4.762;2023-04-08T09:23:05;16.10;99.90
19966;DHT22;10144;50.874;4.762;2023-04-08T09:25:50;15.50;99.90
19966;DHT22;10144;50.874;4.762;2023-04-08T09:28:22;15.50;99.90
19966;DHT22;10144;50.874;4.762;2023-04-08T09:30:55;16.20;99.90
19966;DHT22;10144;50.874;4.762;2023-04-08T09:33:31;17.60;99.90
19966;DHT22;10144;50.874;4.762;2023-04-08T09:35:59;17.80;99.90
19966;DHT22;10144;50.874;4.762;2023-04-08T09:38:31;18.10;99.90
19966;DHT22;10144;50.874;4.762;2023-04-08T09:41:01;17.70;99.90
19966;DHT22;10144;50.874;4.762;2023-04-08T09:44:03;18.10;99.90
19966;DHT22;10144;50.874;4.762;2023-04-08T09:49:18;19.10;99.90
19966;DHT22;10144;50.874;4.762;2023-04-08T09:52:10;20.30;99.90
19966;DHT22;10144;50.874;4.762;2023-04-08T09:54:59;22.10;99.90
19966;DHT22;10144;50.874;4.762;2023-04-08T09:58:07;22.80;99.90
19966;DHT22;10144;50.874;4.762;2023-04-08T10:00:39;22.90;99.90
19966;DHT22;10144;50.874;4.762;2023-04-08T10:03:47;22.20;99.90
19966;DHT22;10144;50.874;4.762;2023-04-08T10:06:14;21.50;99.90
19966;DHT22;10144;50.874;4.762;2023-04-08T10:08:41;20.50;99.90
19966;DHT22;10144;50.874;4.762;2023-04-08T10:11:07;19.80;99.90
19966;DHT22;10144;50.874;4.762;2023-04-08T10:13:33;18.60;99.90
19966;DHT22;10144;50.874;4.762;2023-04-08T10:16:18;17.50;99.90
19966;DHT22;10144;50.874;4.762;2023-04-08T10:18:55;17.10;99.90
19966;DHT22;10144;50.874;4.762;2023-04-08T10:21:47;16.40;99.90
19966;DHT22;10144;50.874;4.762;2023-04-08T10:24:14;15.90;99.90
19966;DHT22;10144;50.874;4.762;2023-04-08T10:26:41;15.50;99.90
19966;DHT22;10144;50.874;4.762;2023-04-08T10:31:52;15.60;99.90
19966;DHT22;10144;50.874;4.762;2023-04-08T10:34:22;15.50;99.90
19966;DHT22;10144;50.874;4.762;2023-04-08T10:36:55;15.50;99.90
19966;DHT22;10144;50.874;4.762;2023-04-08T10:42:41;15.50;99.90
19966;DHT22;10144;50.874;4.762;2023-04-08T10:45:07;15.60;99.90
19966;DHT22;10144;50.874;4.762;2023-04-08T10:47:34;15.80;99.90
19966;DHT22;10144;50.874;4.762;2023-04-08T10:50:11;16.30;99.90
19966;DHT22;10144;50.874;4.762;2023-04-08T10:52:48;16.20;99.90
19966;DHT22;10144;50.874;4.762;2023-04-08T10:55:15;16.40;99.90
19966;DHT22;10144;50.874;4.762;2023-04-08T11:01:05;16.50;99.90
19966;DHT22;10144;50.874;4.762;2023-04-08T11:06:54;16.90;99.90
19966;DHT22;10144;50.874;4.762;2023-04-08T11:12:42;18.50;99.90
19966;DHT22;10144;50.874;4.762;2023-04-08T11:15:30;18.60;99.90
19966;DHT22;10144;50.874;4.762;2023-04-08T11:18:00;19.60;99.90
19966;DHT22;10144;50.874;4.762;2023-04-08T11:20:26;19.80;99.90
19966;DHT22;10144;50.874;4.762;2023-04-08T11:22:52;21.40;99.90
19966;DHT22;10144;50.874;4.762;2023-04-08T11:25:19;21.40;99.90
19966;DHT22;10144;50.874;4.762;2023-04-08T11:27:46;22.00;99.90
19966;DHT22;10144;50.874;4.762;2023-04-08T11:30:18;22.70;99.90
19966;DHT22;10144;50.874;4.762;2023-04-08T11:33:00;23.00;99.90
19966;DHT22;10144;50.874;4.762;2023-04-08T11:35:55;24.10;99.90
19966;DHT22;10144;50.874;4.762;2023-04-08T11:38:22;23.30;99.90
19966;DHT22;10144;50.874;4.762;2023-04-08T11:40:55;22.70;99.90
19966;DHT22;10144;50.874;4.762;2023-04-08T11:43:31;20.50;99.90
19966;DHT22;10144;50.874;4.762;2023-04-08T11:46:11;18.70;99.90
19966;DHT22;10144;50.874;4.762;2023-04-08T11:48:38;18.10;99.90
19966;DHT22;10144;50.874;4.762;2023-04-08T11:51:07;17.90;99.90
19966;DHT22;10144;50.874;4.762;2023-04-08T11:53:36;17.30;99.90
19966;DHT22;10144;50.874;4.762;2023-04-08T11:56:19;17.00;99.90
19966;DHT22;10144;50.874;4.762;2023-04-08T11:58:44;16.00;99.90
19966;DHT22;10144;50.874;4.762;2023-04-08T12:01:11;15.90;99.90
19966;DHT22;10144;50.874;4.762;2023-04-08T12:03:37;16.50;99.90
19966;DHT22;10144;50.874;4.762;2023-04-08T12:06:03;16.30;99.90
19966;DHT22;10144;50.874;4.762;2023-04-08T12:08:31;16.00;99.90
19966;DHT22;10144;50.874;4.762;2023-04-08T12:10:56;16.30;99.90
19966;DHT22;10144;50.874;4.762;2023-04-08T12:13:22;16.80;99.90
19966;DHT22;10144;50.874;4.762;2023-04-08T12:15:47;17.10;99.90
19966;DHT22;10144;50.874;4.762;2023-04-08T12:18:13;17.30;99.90
19966;DHT22;10144;50.874;4.762;2023-04-08T12:20:39;17.70;99.90
19966;DHT22;10144;50.874;4.762;2023-04-08T12:23:04;17.60;99.90
19966;DHT22;10144;50.874;4.762;2023-04-08T12:25:32;17.30;99.90
19966;DHT22;10144;50.874;4.762;2023-04-08T12:27:57;17.50;99.90
19966;DHT22;10144;50.874;4.762;2023-04-08T12:30:23;18.00;99.90
19966;DHT22;10144;50.874;4.762;2023-04-08T12:32:49;18.50;99.90
19966;DHT22;10144;50.874;4.762;2023-04-08T12:35:14;19.40;99.90
19966;DHT22;10144;50.874;4.762;2023-04-08T12:37:40;19.90;99.90
19966;DHT22;10144;50.874;4.762;2023-04-08T12:40:06;20.50;99.90
19966;DHT22;10144;50.874;4.762;2023-04-08T12:42:32;21.00;99.90
19966;DHT22;10144;50.874;4.762;2023-04-08T12:44:59;20.70;99.90
19966;DHT22;10144;50.874;4.762;2023-04-08T12:47:25;20.90;99.90
19966;DHT22;10144;50.874;4.762;2023-04-08T12:49:50;21.90;99.90
19966;DHT22;10144;50.874;4.762;2023-04-08T12:52:16;22.90;99.90
19966;DHT22;10144;50.874;4.762;2023-04-08T12:54:41;24.00;99.90
19966;DHT22;10144;50.874;4.762;2023-04-08T12:57:07;24.00;99.90
19966;DHT22;10144;50.874;4.762;2023-04-08T12:59:33;23.80;99.90
19966;DHT22;10144;50.874;4.762;2023-04-08T13:01:58;24.30;99.90
19966;DHT22;10144;50.874;4.762;2023-04-08T13:04:24;24.30;99.90
19966;DHT22;10144;50.874;4.762;2023-04-08T13:06:49;24.30;99.90
19966;DHT22;10144;50.874;4.762;2023-04-08T13:09:16;23.10;99.90
19966;DHT22;10144;50.874;4.762;2023-04-08T13:11:41;21.70;99.90
19966;DHT22;10144;50.874;4.762;2023-04-08T13:14:07;21.50;99.90
19966;DHT22;10144;50.874;4.762;2023-04-08T13:16:33;21.10;99.90
19966;DHT22;10144;50.874;4.762;2023-04-08T13:18:58;20.00;99.90
19966;DHT22;10144;50.874;4.762;2023-04-08T13:21:24;19.20;99.90
19966;DHT22;10144;50.874;4.762;2023-04-08T13:23:50;18.30;99.90
19966;DHT22;10144;50.874;4.762;2023-04-08T13:26:16;18.00;99.90
19966;DHT22;10144;50.874;4.762;2023-04-08T13:28:42;17.60;99.90
19966;DHT22;10144;50.874;4.762;2023-04-08T13:31:08;17.50;99.90
19966;DHT22;10144;50.874;4.762;2023-04-08T13:33:34;17.40;99.90
19966;DHT22;10144;50.874;4.762;2023-04-08T13:36:00;17.50;99.90
19966;DHT22;10144;50.874;4.762;2023-04-08T13:38:25;17.70;99.90
19966;DHT22;10144;50.874;4.762;2023-04-08T13:40:51;18.00;99.90
19966;DHT22;10144;50.874;4.762;2023-04-08T13:43:17;17.60;99.90
19966;DHT22;10144;50.874;4.762;2023-04-08T13:45:43;17.60;99.90
19966;DHT22;10144;50.874;4.762;2023-04-08T13:48:08;17.90;99.90
19966;DHT22;10144;50.874;4.762;2023-04-08T13:50:34;18.30;99.90
19966;DHT22;10144;50.874;4.762;2023-04-08T13:53:00;18.60;99.90
19966;DHT22;10144;50.874;4.762;2023-04-08T13:55:26;18.60;99.90
19966;DHT22;10144;50.874;4.762;2023-04-08T13:57:52;18.90;99.90
19966;DHT22;10144;50.874;4.762;2023-04-08T14:00:17;19.00;99.90
19966;DHT22;10144;50.874;4.762;2023-04-08T14:02:43;18.80;99.90
19966;DHT22;10144;50.874;4.762;2023-04-08T14:05:08;18.80;99.90
19966;DHT22;10144;50.874;4.762;2023-04-08T14:07:34;17.70;99.90
19966;DHT22;10144;50.874;4.762;2023-04-08T14:10:00;17.30;99.90
19966;DHT22;10144;50.874;4.762;2023-04-08T14:12:25;16.90;99.90
19966;DHT22;10144;50.874;4.762;2023-04-08T14:14:51;16.60;99.90
19966;DHT22;10144;50.874;4.762;2023-04-08T14:17:16;16.30;99.90
19966;DHT22;10144;50.874;4.762;2023-04-08T14:19:42;15.80;99.90
19966;DHT22;10144;50.874;4.762;2023-04-08T14:22:07;15.70;99.90
19966;DHT22;10144;50.874;4.762;2023-04-08T14:24:33;15.70;99.90
19966;DHT22;10144;50.874;4.762;2023-04-08T14:26:59;16.00;99.90
19966;DHT22;10144;50.874;4.762;2023-04-08T14:29:25;16.00;99.90
19966;DHT22;10144;50.874;4.762;2023-04-08T14:31:50;15.60;99.90
19966;DHT22;10144;50.874;4.762;2023-04-08T14:34:16;14.90;99.90
19966;DHT22;10144;50.874;4.762;2023-04-08T14:36:42;14.70;99.90
19966;DHT22;10144;50.874;4.762;2023-04-08T14:39:08;14.90;99.90
19966;DHT22;10144;50.874;4.762;2023-04-08T14:41:33;15.40;99.90
19966;DHT22;10144;50.874;4.762;2023-04-08T14:43:59;15.90;99.90
19966;DHT22;10144;50.874;4.762;2023-04-08T14:46:25;15.90;99.90
19966;DHT22;10144;50.874;4.762;2023-04-08T14:48:51;15.70;99.90
19966;DHT22;10144;50.874;4.762;2023-04-08T14:51:17;16.00;99.90
19966;DHT22;10144;50.874;4.762;2023-04-08T14:53:42;16.20;99.90
19966;DHT22;10144;50.874;4.762;2023-04-08T14:56:08;16.00;99.90
19966;DHT22;10144;50.874;4.762;2023-04-08T14:58:34;16.40;99.90
19966;DHT22;10144;50.874;4.762;2023-04-08T15:01:00;16.40;99.90
19966;DHT22;10144;50.874;4.762;2023-04-08T15:03:25;16.60;99.90
19966;DHT22;10144;50.874;4.762;2023-04-08T15:05:51;16.30;99.90
19966;DHT22;10144;50.874;4.762;2023-04-08T15:08:17;15.90;99.90
19966;DHT22;10144;50.874;4.762;2023-04-08T15:10:43;15.70;99.90
19966;DHT22;10144;50.874;4.762;2023-04-08T15:13:08;15.20;99.90
19966;DHT22;10144;50.874;4.762;2023-04-08T15:15:34;15.30;99.90
19966;DHT22;10144;50.874;4.762;2023-04-08T15:18:00;15.50;99.90
19966;DHT22;10144;50.874;4.762;2023-04-08T15:20:26;15.60;99.90
19966;DHT22;10144;50.874;4.762;2023-04-08T15:22:51;15.90;99.90
19966;DHT22;10144;50.874;4.762;2023-04-08T15:25:17;16.00;99.90
19966;DHT22;10144;50.874;4.762;2023-04-08T15:27:43;16.20;99.90
19966;DHT22;10144;50.874;4.762;2023-04-08T15:30:08;16.10;99.90
19966;DHT22;10144;50.874;4.762;2023-04-08T15:32:34;16.00;99.90
19966;DHT22;10144;50.874;4.762;2023-04-08T15:35:00;16.30;99.90
19966;DHT22;10144;50.874;4.762;2023-04-08T15:37:26;16.30;99.90
19966;DHT22;10144;50.874;4.762;2023-04-08T15:39:52;16.50;99.90
19966;DHT22;10144;50.874;4.762;2023-04-08T15:42:21;16.00;99.90
19966;DHT22;10144;50.874;4.762;2023-04-08T15:44:47;15.90;99.90
19966;DHT22;10144;50.874;4.762;2023-04-08T15:47:13;15.70;99.90
19966;DHT22;10144;50.874;4.762;2023-04-08T15:49:39;15.60;99.90
19966;DHT22;10144;50.874;4.762;2023-04-08T15:52:04;16.00;99.90
19966;DHT22;10144;50.874;4.762;2023-04-08T15:54:32;16.10;99.90
19966;DHT22;10144;50.874;4.762;2023-04-08T15:56:58;16.20;99.90
19966;DHT22;10144;50.874;4.762;2023-04-08T15:59:24;16.30;99.90
19966;DHT22;10144;50.874;4.762;2023-04-08T16:01:49;16.30;99.90
19966;DHT22;10144;50.874;4.762;2023-04-08T16:04:15;16.30;99.90
19966;DHT22;10144;50.874;4.762;2023-04-08T16:06:41;16.30;99.90
19966;DHT22;10144;50.874;4.762;2023-04-08T16:09:07;16.00;99.90
19966;DHT22;10144;50.874;4.762;2023-04-08T16:11:34;15.60;99.90
19966;DHT22;10144;50.874;4.762;2023-04-08T16:14:00;15.40;99.90
19966;DHT22;10144;50.874;4.762;2023-04-08T16:16:26;15.00;99.90
19966;DHT22;10144;50.874;4.762;2023-04-08T16:18:51;15.30;99.90
19966;DHT22;10144;50.874;4.762;2023-04-08T16:21:18;15.50;99.90
19966;DHT22;10144;50.874;4.762;2023-04-08T16:23:43;15.50;99.90
19966;DHT22;10144;50.874;4.762;2023-04-08T16:26:09;15.60;99.90
19966;DHT22;10144;50.874;4.762;2023-04-08T16:28:35;15.10;99.90
19966;DHT22;10144;50.874;4.762;2023-04-08T16:31:02;15.10;99.90
19966;DHT22;10144;50.874;4.762;2023-04-08T16:33:28;15.30;99.90
19966;DHT22;10144;50.874;4.762;2023-04-08T16:35:55;15.50;99.90
19966;DHT22;10144;50.874;4.762;2023-04-08T16:38:22;15.60;99.90
19966;DHT22;10144;50.874;4.762;2023-04-08T16:40:48;15.50;99.90
19966;DHT22;10144;50.874;4.762;2023-04-08T16:43:14;15.20;99.90
19966;DHT22;10144;50.874;4.762;2023-04-08T16:45:43;15.30;99.90
19966;DHT22;10144;50.874;4.762;2023-04-08T16:48:08;15.20;99.90
19966;DHT22;10144;50.874;4.762;2023-04-08T16:50:37;15.00;99.90
19966;DHT22;10144;50.874;4.762;2023-04-08T16:53:03;14.90;99.90
19966;DHT22;10144;50.874;4.762;2023-04-08T16:55:35;15.10;99.90
19966;DHT22;10144;50.874;4.762;2023-04-08T16:58:01;15.40;99.90
19966;DHT22;10144;50.874;4.762;2023-04-08T17:00:29;15.60;99.90
19966;DHT22;10144;50.874;4.762;2023-04-08T17:02:56;15.50;99.90
19966;DHT22;10144;50.874;4.762;2023-04-08T17:05:29;15.30;99.90
19966;DHT22;10144;50.874;4.762;2023-04-08T17:07:57;15.10;99.90
19966;DHT22;10144;50.874;4.762;2023-04-08T17:10:24;14.70;99.90
19966;DHT22;10144;50.874;4.762;2023-04-08T17:12:50;14.90;99.90
19966;DHT22;10144;50.874;4.762;2023-04-08T17:15:15;15.10;99.90
19966;DHT22;10144;50.874;4.762;2023-04-08T17:17:41;14.50;99.90
19966;DHT22;10144;50.874;4.762;2023-04-08T17:20:07;14.10;99.90
19966;DHT22;10144;50.874;4.762;2023-04-08T17:22:33;14.00;99.90
19966;DHT22;10144;50.874;4.762;2023-04-08T17:24:58;14.00;99.90
19966;DHT22;10144;50.874;4.762;2023-04-08T17:27:24;14.00;99.90
19966;DHT22;10144;50.874;4.762;2023-04-08T17:29:50;14.10;99.90
19966;DHT22;10144;50.874;4.762;2023-04-08T17:32:24;13.90;99.90
19966;DHT22;10144;50.874;4.762;2023-04-08T17:34:51;13.70;99.90
19966;DHT22;10144;50.874;4.762;2023-04-08T17:37:16;13.60;99.90
19966;DHT22;10144;50.874;4.762;2023-04-08T17:39:43;13.40;99.90
19966;DHT22;10144;50.874;4.762;2023-04-08T17:42:11;13.40;99.90
19966;DHT22;10144;50.874;4.762;2023-04-08T17:44:37;13.40;99.90
19966;DHT22;10144;50.874;4.762;2023-04-08T17:47:12;13.50;99.90
19966;DHT22;10144;50.874;4.762;2023-04-08T17:49:38;13.60;99.90
19966;DHT22;10144;50.874;4.762;2023-04-08T17:52:04;13.70;99.90
19966;DHT22;10144;50.874;4.762;2023-04-08T17:54:33;13.70;99.90
19966;DHT22;10144;50.874;4.762;2023-04-08T17:57:02;13.80;99.90
19966;DHT22;10144;50.874;4.762;2023-04-08T17:59:31;13.90;99.90
19966;DHT22;10144;50.874;4.762;2023-04-08T18:01:58;13.90;99.90
19966;DHT22;10144;50.874;4.762;2023-04-08T18:04:27;14.00;99.90
19966;DHT22;10144;50.874;4.762;2023-04-08T18:06:54;13.90;99.90
19966;DHT22;10144;50.874;4.762;2023-04-08T18:09:24;13.90;99.90
19966;DHT22;10144;50.874;4.762;2023-04-08T18:11:49;14.00;99.90
19966;DHT22;10144;50.874;4.762;2023-04-08T18:14:15;13.80;99.90
19966;DHT22;10144;50.874;4.762;2023-04-08T18:16:40;13.70;99.90
19966;DHT22;10144;50.874;4.762;2023-04-08T18:19:06;13.60;99.90
19966;DHT22;10144;50.874;4.762;2023-04-08T18:21:32;13.50;99.90
19966;DHT22;10144;50.874;4.762;2023-04-08T18:23:57;13.50;99.90
19966;DHT22;10144;50.874;4.762;2023-04-08T18:26:23;13.40;99.90
19966;DHT22;10144;50.874;4.762;2023-04-08T18:28:48;13.50;99.90
19966;DHT22;10144;50.874;4.762;2023-04-08T18:31:14;13.50;99.90
19966;DHT22;10144;50.874;4.762;2023-04-08T18:33:40;13.60;99.90
19966;DHT22;10144;50.874;4.762;2023-04-08T18:36:08;13.40;99.90
19966;DHT22;10144;50.874;4.762;2023-04-08T18:38:34;13.20;99.90
19966;DHT22;10144;50.874;4.762;2023-04-08T18:41:03;12.90;99.90
19966;DHT22;10144;50.874;4.762;2023-04-08T18:43:29;12.50;99.90
19966;DHT22;10144;50.874;4.762;2023-04-08T18:45:56;12.10;99.90
19966;DHT22;10144;50.874;4.762;2023-04-08T18:48:22;11.80;99.90
19966;DHT22;10144;50.874;4.762;2023-04-08T18:50:47;11.50;99.90
19966;DHT22;10144;50.874;4.762;2023-04-08T18:53:13;11.40;99.90
19966;DHT22;10144;50.874;4.762;2023-04-08T18:55:39;11.30;99.90
19966;DHT22;10144;50.874;4.762;2023-04-08T18:58:06;11.20;99.90
19966;DHT22;10144;50.874;4.762;2023-04-08T19:00:32;11.10;99.90
19966;DHT22;10144;50.874;4.762;2023-04-08T19:02:57;11.10;99.90
19966;DHT22;10144;50.874;4.762;2023-04-08T19:05:23;11.10;99.90
19966;DHT22;10144;50.874;4.762;2023-04-08T19:07:49;11.10;99.90
19966;DHT22;10144;50.874;4.762;2023-04-08T19:10:14;11.00;99.90
19966;DHT22;10144;50.874;4.762;2023-04-08T19:12:40;10.90;99.90
19966;DHT22;10144;50.874;4.762;2023-04-08T19:15:06;10.80;99.90
19966;DHT22;10144;50.874;4.762;2023-04-08T19:17:31;10.80;99.90
19966;DHT22;10144;50.874;4.762;2023-04-08T19:19:57;10.80;99.90
19966;DHT22;10144;50.874;4.762;2023-04-08T19:22:23;10.80;99.90
19966;DHT22;10144;50.874;4.762;2023-04-08T19:24:49;10.70;99.90
19966;DHT22;10144;50.874;4.762;2023-04-08T19:27:15;10.60;99.90
19966;DHT22;10144;50.874;4.762;2023-04-08T19:29:41;10.70;99.90
19966;DHT22;10144;50.874;4.762;2023-04-08T19:32:06;10.70;99.90
19966;DHT22;10144;50.874;4.762;2023-04-08T19:34:36;10.60;99.90
19966;DHT22;10144;50.874;4.762;2023-04-08T19:37:02;10.60;99.90
19966;DHT22;10144;50.874;4.762;2023-04-08T19:39:28;10.60;99.90
19966;DHT22;10144;50.874;4.762;2023-04-08T19:41:53;10.60;99.90
19966;DHT22;10144;50.874;4.762;2023-04-08T19:44:19;10.60;99.90
19966;DHT22;10144;50.874;4.762;2023-04-08T19:46:45;10.60;99.90
19966;DHT22;10144;50.874;4.762;2023-04-08T19:49:10;10.40;99.90
19966;DHT22;10144;50.874;4.762;2023-04-08T19:51:36;10.40;99.90
19966;DHT22;10144;50.874;4.762;2023-04-08T19:54:02;10.40;99.90
19966;DHT22;10144;50.874;4.762;2023-04-08T19:56:29;10.30;99.90
19966;DHT22;10144;50.874;4.762;2023-04-08T19:58:58;10.20;99.90
19966;DHT22;10144;50.874;4.762;2023-04-08T20:01:24;10.10;99.90
19966;DHT22;10144;50.874;4.762;2023-04-08T20:03:49;10.10;99.90
19966;DHT22;10144;50.874;4.762;2023-04-08T20:06:16;10.00;99.90
19966;DHT22;10144;50.874;4.762;2023-04-08T20:08:43;10.00;99.90
19966;DHT22;10144;50.874;4.762;2023-04-08T20:11:09;9.90;99.90
19966;DHT22;10144;50.874;4.762;2023-04-08T20:13:35;9.90;99.90
19966;DHT22;10144;50.874;4.762;2023-04-08T20:16:01;9.80;99.90
19966;DHT22;10144;50.874;4.762;2023-04-08T20:18:27;9.70;99.90
19966;DHT22;10144;50.874;4.762;2023-04-08T20:20:53;9.70;99.90
19966;DHT22;10144;50.874;4.762;2023-04-08T20:23:19;9.70;99.90